createdAt,value
2023-02-16T00:00:10.568Z,1017.96
2023-02-16T00:01:10.577Z,1017.98
2023-02-16T00:02:10.641Z,1018.00
2023-02-16T00:03:10.600Z,1018.00
2023-02-16T00:04:10.601Z,1018.00
2023-02-16T00:05:10.610Z,1018.02
2023-02-16T00:06:10.617Z,1018.01
2023-02-16T00:07:10.624Z,1018.08
2023-02-16T00:08:10.635Z,1018.08
2023-02-16T00:09:10.638Z,1018.04
2023-02-16T00:10:10.650Z,1018.06
2023-02-16T00:11:10.656Z,1018.06
2023-02-16T00:12:10.669Z,1018.04
2023-02-16T00:13:10.672Z,1018.05
2023-02-16T00:14:10.682Z,1018.01
2023-02-16T00:15:10.688Z,1018.00
2023-02-16T00:16:10.737Z,1018.01
2023-02-16T00:17:10.708Z,1018.07
2023-02-16T00:18:10.711Z,1018.03
2023-02-16T00:19:10.717Z,1018.02
2023-02-16T00:20:10.726Z,1018.04
2023-02-16T00:21:10.734Z,1018.02
2023-02-16T00:22:10.741Z,1018.00
2023-02-16T00:23:10.754Z,1018.02
2023-02-16T00:24:10.761Z,1018.06
2023-02-16T00:25:10.770Z,1018.00
2023-02-16T00:26:10.804Z,1018.02
2023-02-16T00:27:10.781Z,1018.00
2023-02-16T00:28:10.789Z,1018.00
2023-02-16T00:29:10.795Z,1018.03
2023-02-16T00:30:10.876Z,1018.03
2023-02-16T00:31:10.889Z,1018.03
2023-02-16T00:32:10.919Z,1018.03
2023-02-16T00:33:10.837Z,1018.00
2023-02-16T00:34:10.842Z,1017.99
2023-02-16T00:35:10.846Z,1018.00
2023-02-16T00:36:10.853Z,1017.97
2023-02-16T00:37:10.890Z,1017.98
2023-02-16T00:38:10.869Z,1017.99
2023-02-16T00:39:10.876Z,1018.01
2023-02-16T00:40:10.883Z,1018.02
2023-02-16T00:41:10.892Z,1018.04
2023-02-16T00:42:10.900Z,1018.03
2023-02-16T00:43:10.909Z,1018.01
2023-02-16T00:44:10.916Z,1017.98
2023-02-16T00:45:10.928Z,1018.01
2023-02-16T00:46:10.981Z,1018.01
2023-02-16T00:47:10.946Z,1018.01
2023-02-16T00:48:10.948Z,1018.00
2023-02-16T00:49:10.957Z,1018.06
2023-02-16T00:50:10.968Z,1018.06
2023-02-16T00:51:24.914Z,1018.05
2023-02-16T00:52:10.981Z,1018.07
2023-02-16T00:53:10.987Z,1018.04
2023-02-16T00:54:10.997Z,1018.02
2023-02-16T00:55:11.005Z,1018.01
2023-02-16T00:56:11.012Z,1018.04
2023-02-16T00:57:11.022Z,1018.04
2023-02-16T00:58:11.031Z,1018.06
2023-02-16T00:59:11.035Z,1018.05
2023-02-16T01:00:11.042Z,1018.05
2023-02-16T01:01:11.112Z,1018.05
2023-02-16T01:02:11.067Z,1018.03
2023-02-16T01:03:11.066Z,1018.04
2023-02-16T01:04:11.079Z,1017.99
2023-02-16T01:05:11.080Z,1017.99
2023-02-16T01:06:11.091Z,1017.97
2023-02-16T01:07:11.104Z,1017.95
2023-02-16T01:08:11.122Z,1017.96
2023-02-16T01:09:11.125Z,1017.99
2023-02-16T01:10:11.124Z,1018.00
2023-02-16T01:11:11.137Z,1017.96
2023-02-16T01:12:11.135Z,1018.00
2023-02-16T01:13:11.137Z,1017.98
2023-02-16T01:14:11.152Z,1017.98
2023-02-16T01:15:11.170Z,1017.95
2023-02-16T01:16:11.227Z,1017.94
2023-02-16T01:17:11.168Z,1017.92
2023-02-16T01:18:11.186Z,1017.91
2023-02-16T01:19:11.187Z,1017.86
2023-02-16T01:20:11.192Z,1017.86
2023-02-16T01:21:11.201Z,1017.88
2023-02-16T01:22:11.207Z,1017.90
2023-02-16T01:23:11.216Z,1017.92
2023-02-16T01:24:11.222Z,1017.91
2023-02-16T01:25:11.232Z,1017.93
2023-02-16T01:26:11.246Z,1017.93
2023-02-16T01:27:11.247Z,1017.98
2023-02-16T01:28:11.255Z,1017.94
2023-02-16T01:29:11.261Z,1017.95
2023-02-16T01:30:11.328Z,1017.96
2023-02-16T01:31:11.364Z,1017.95
2023-02-16T01:32:11.404Z,1017.92
2023-02-16T01:33:11.289Z,1017.94
2023-02-16T01:34:11.294Z,1017.89
2023-02-16T01:35:11.306Z,1017.90
2023-02-16T01:36:11.332Z,1017.86
2023-02-16T01:37:11.325Z,1017.86
2023-02-16T01:38:11.341Z,1017.89
2023-02-16T01:39:11.337Z,1017.90
2023-02-16T01:40:11.345Z,1017.84
2023-02-16T01:41:11.353Z,1017.83
2023-02-16T01:42:11.360Z,1017.90
2023-02-16T01:43:11.371Z,1017.83
2023-02-16T01:44:11.395Z,1017.86
2023-02-16T01:45:11.388Z,1017.90
2023-02-16T01:46:11.436Z,1017.86
2023-02-16T01:47:11.397Z,1017.87
2023-02-16T01:48:11.408Z,1017.86
2023-02-16T01:49:11.412Z,1017.82
2023-02-16T01:50:11.421Z,1017.86
2023-02-16T01:51:11.426Z,1017.83
2023-02-16T01:52:11.434Z,1017.79
2023-02-16T01:53:11.444Z,1017.83
2023-02-16T01:54:11.458Z,1017.83
2023-02-16T01:55:11.459Z,1017.81
2023-02-16T01:56:11.467Z,1017.83
2023-02-16T01:57:11.472Z,1017.82
2023-02-16T01:58:11.484Z,1017.82
2023-02-16T01:59:11.487Z,1017.79
2023-02-16T02:00:11.495Z,1017.81
2023-02-16T02:01:11.502Z,1017.83
2023-02-16T02:02:11.511Z,1017.84
2023-02-16T02:03:11.560Z,1017.79
2023-02-16T02:04:11.527Z,1017.79
2023-02-16T02:05:11.533Z,1017.83
2023-02-16T02:06:11.540Z,1017.79
2023-02-16T02:07:11.553Z,1017.78
2023-02-16T02:08:11.555Z,1017.73
2023-02-16T02:09:11.563Z,1017.73
2023-02-16T02:10:11.580Z,1017.69
2023-02-16T02:11:11.582Z,1017.68
2023-02-16T02:12:11.589Z,1017.68
2023-02-16T02:13:11.590Z,1017.70
2023-02-16T02:14:11.599Z,1017.68
2023-02-16T02:15:11.605Z,1017.66
2023-02-16T02:16:11.671Z,1017.69
2023-02-16T02:17:11.619Z,1017.65
2023-02-16T02:18:11.627Z,1017.65
2023-02-16T02:19:11.635Z,1017.64
2023-02-16T02:20:11.644Z,1017.63
2023-02-16T02:21:11.654Z,1017.59
2023-02-16T02:22:11.657Z,1017.62
2023-02-16T02:23:11.664Z,1017.64
2023-02-16T02:24:11.676Z,1017.62
2023-02-16T02:25:11.686Z,1017.61
2023-02-16T02:26:11.688Z,1017.65
2023-02-16T02:27:11.694Z,1017.68
2023-02-16T02:28:11.704Z,1017.66
2023-02-16T02:29:11.708Z,1017.64
2023-02-16T02:30:11.756Z,1017.65
2023-02-16T02:31:11.843Z,1017.62
2023-02-16T02:32:11.754Z,1017.60
2023-02-16T02:33:11.768Z,1017.63
2023-02-16T02:34:11.743Z,1017.55
2023-02-16T02:35:11.754Z,1017.58
2023-02-16T02:36:11.776Z,1017.56
2023-02-16T02:37:11.775Z,1017.57
2023-02-16T02:38:11.775Z,1017.56
2023-02-16T02:39:11.784Z,1017.54
2023-02-16T02:40:11.789Z,1017.54
2023-02-16T02:41:11.798Z,1017.46
2023-02-16T02:42:11.806Z,1017.50
2023-02-16T02:43:11.811Z,1017.48
2023-02-16T02:44:11.821Z,1017.49
2023-02-16T02:45:11.843Z,1017.46
2023-02-16T02:46:11.869Z,1017.45
2023-02-16T02:47:11.842Z,1017.47
2023-02-16T02:48:11.853Z,1017.45
2023-02-16T02:49:11.864Z,1017.46
2023-02-16T02:50:11.863Z,1017.46
2023-02-16T02:51:11.873Z,1017.46
2023-02-16T02:52:11.880Z,1017.44
2023-02-16T02:53:11.886Z,1017.44
2023-02-16T02:54:11.894Z,1017.42
2023-02-16T02:55:11.900Z,1017.42
2023-02-16T02:56:11.909Z,1017.41
2023-02-16T02:57:11.920Z,1017.42
2023-02-16T02:58:11.923Z,1017.38
2023-02-16T02:59:11.943Z,1017.41
2023-02-16T03:00:11.940Z,1017.43
2023-02-16T03:01:11.985Z,1017.40
2023-02-16T03:02:11.972Z,1017.40
2023-02-16T03:03:11.968Z,1017.40
2023-02-16T03:04:11.970Z,1017.42
2023-02-16T03:05:11.979Z,1017.37
2023-02-16T03:06:11.984Z,1017.38
2023-02-16T03:07:11.989Z,1017.41
2023-02-16T03:08:11.998Z,1017.37
2023-02-16T03:09:12.013Z,1017.39
2023-02-16T03:10:12.011Z,1017.38
2023-02-16T03:11:12.031Z,1017.39
2023-02-16T03:12:12.034Z,1017.37
2023-02-16T03:13:12.034Z,1017.37
2023-02-16T03:14:12.041Z,1017.30
2023-02-16T03:15:12.057Z,1017.31
2023-02-16T03:16:12.119Z,1017.30
2023-02-16T03:17:12.064Z,1017.27
2023-02-16T03:18:12.070Z,1017.32
2023-02-16T03:19:12.080Z,1017.35
2023-02-16T03:20:12.083Z,1017.33
2023-02-16T03:21:12.094Z,1017.30
2023-02-16T03:22:12.100Z,1017.29
2023-02-16T03:23:12.109Z,1017.32
2023-02-16T03:24:12.115Z,1017.29
2023-02-16T03:25:12.119Z,1017.34
2023-02-16T03:26:12.130Z,1017.38
2023-02-16T03:27:12.134Z,1017.34
2023-02-16T03:28:12.144Z,1017.34
2023-02-16T03:29:12.147Z,1017.38
2023-02-16T03:30:12.198Z,1017.33
2023-02-16T03:31:12.265Z,1017.34
2023-02-16T03:32:12.240Z,1017.36
2023-02-16T03:33:12.180Z,1017.36
2023-02-16T03:34:12.184Z,1017.38
2023-02-16T03:35:12.192Z,1017.40
2023-02-16T03:36:12.202Z,1017.41
2023-02-16T03:37:12.205Z,1017.44
2023-02-16T03:38:12.215Z,1017.40
2023-02-16T03:39:12.219Z,1017.38
2023-02-16T03:40:12.240Z,1017.35
2023-02-16T03:41:12.253Z,1017.40
2023-02-16T03:42:12.239Z,1017.37
2023-02-16T03:43:12.254Z,1017.39
2023-02-16T03:44:12.280Z,1017.32
2023-02-16T03:45:12.264Z,1017.35
2023-02-16T03:46:12.298Z,1017.32
2023-02-16T03:47:12.277Z,1017.34
2023-02-16T03:48:12.293Z,1017.37
2023-02-16T03:49:12.291Z,1017.38
2023-02-16T03:50:12.298Z,1017.37
2023-02-16T03:51:12.304Z,1017.39
2023-02-16T03:52:12.314Z,1017.34
2023-02-16T03:53:12.319Z,1017.31
2023-02-16T03:54:12.328Z,1017.32
2023-02-16T03:55:12.340Z,1017.33
2023-02-16T03:56:12.349Z,1017.34
2023-02-16T03:57:12.352Z,1017.32
2023-02-16T03:58:12.365Z,1017.31
2023-02-16T03:59:12.368Z,1017.33
2023-02-16T04:00:12.379Z,1017.32
2023-02-16T04:01:12.387Z,1017.30
2023-02-16T04:02:12.421Z,1017.28
2023-02-16T04:03:12.395Z,1017.26
2023-02-16T04:04:12.445Z,1017.31
2023-02-16T04:05:12.410Z,1017.29
2023-02-16T04:06:12.417Z,1017.30
2023-02-16T04:07:12.427Z,1017.36
2023-02-16T04:08:12.450Z,1017.37
2023-02-16T04:09:12.440Z,1017.36
2023-02-16T04:10:12.453Z,1017.37
2023-02-16T04:11:12.454Z,1017.40
2023-02-16T04:12:12.463Z,1017.37
2023-02-16T04:13:12.482Z,1017.39
2023-02-16T04:14:12.476Z,1017.32
2023-02-16T04:15:12.486Z,1017.40
2023-02-16T04:16:12.492Z,1017.41
2023-02-16T04:17:12.496Z,1017.36
2023-02-16T04:18:12.504Z,1017.34
2023-02-16T04:19:12.512Z,1017.34
2023-02-16T04:20:12.520Z,1017.36
2023-02-16T04:21:12.529Z,1017.35
2023-02-16T04:22:12.532Z,1017.35
2023-02-16T04:23:12.546Z,1017.36
2023-02-16T04:24:12.549Z,1017.32
2023-02-16T04:25:12.556Z,1017.31
2023-02-16T04:26:12.597Z,1017.27
2023-02-16T04:27:12.570Z,1017.26
2023-02-16T04:28:12.585Z,1017.27
2023-02-16T04:29:12.604Z,1017.27
2023-02-16T04:30:12.617Z,1017.30
2023-02-16T04:31:12.679Z,1017.26
2023-02-16T04:32:12.621Z,1017.28
2023-02-16T04:33:12.608Z,1017.29
2023-02-16T04:34:12.634Z,1017.26
2023-02-16T04:35:12.623Z,1017.27
2023-02-16T04:36:12.632Z,1017.32
2023-02-16T04:37:12.637Z,1017.34
2023-02-16T04:38:12.646Z,1017.34
2023-02-16T04:39:12.651Z,1017.31
2023-02-16T04:40:12.658Z,1017.32
2023-02-16T04:41:12.664Z,1017.33
2023-02-16T04:42:12.674Z,1017.33
2023-02-16T04:43:12.678Z,1017.34
2023-02-16T04:44:12.688Z,1017.36
2023-02-16T04:45:12.699Z,1017.32
2023-02-16T04:46:12.738Z,1017.31
2023-02-16T04:47:12.722Z,1017.26
2023-02-16T04:48:12.728Z,1017.25
2023-02-16T04:49:12.721Z,1017.27
2023-02-16T04:50:12.734Z,1017.25
2023-02-16T04:51:12.736Z,1017.25
2023-02-16T04:52:12.748Z,1017.24
2023-02-16T04:53:12.753Z,1017.28
2023-02-16T04:54:12.761Z,1017.24
2023-02-16T04:55:12.773Z,1017.19
2023-02-16T04:56:12.778Z,1017.21
2023-02-16T04:57:12.785Z,1017.19
2023-02-16T04:58:12.789Z,1017.24
2023-02-16T04:59:12.808Z,1017.22
2023-02-16T05:00:12.822Z,1017.18
2023-02-16T05:01:12.906Z,1017.23
2023-02-16T05:02:12.815Z,1017.25
2023-02-16T05:03:12.825Z,1017.19
2023-02-16T05:04:12.933Z,1017.21
2023-02-16T05:05:12.837Z,1017.25
2023-02-16T05:06:12.842Z,1017.24
2023-02-16T05:07:12.853Z,1017.23
2023-02-16T05:08:12.863Z,1017.21
2023-02-16T05:09:12.864Z,1017.22
2023-02-16T05:10:12.876Z,1017.22
2023-02-16T05:11:12.878Z,1017.23
2023-02-16T05:12:12.884Z,1017.27
2023-02-16T05:13:12.894Z,1017.32
2023-02-16T05:14:12.900Z,1017.32
2023-02-16T05:15:12.915Z,1017.33
2023-02-16T05:16:12.977Z,1017.36
2023-02-16T05:17:12.954Z,1017.36
2023-02-16T05:18:12.936Z,1017.35
2023-02-16T05:19:12.952Z,1017.35
2023-02-16T05:20:12.950Z,1017.34
2023-02-16T05:21:12.953Z,1017.34
2023-02-16T05:22:12.970Z,1017.35
2023-02-16T05:23:12.971Z,1017.38
2023-02-16T05:24:12.972Z,1017.41
2023-02-16T05:25:12.977Z,1017.42
2023-02-16T05:26:12.986Z,1017.39
2023-02-16T05:27:13.010Z,1017.39
2023-02-16T05:28:13.067Z,1017.40
2023-02-16T05:29:13.017Z,1017.41
2023-02-16T05:30:13.034Z,1017.38
2023-02-16T05:31:13.189Z,1017.42
2023-02-16T05:32:13.095Z,1017.41
2023-02-16T05:33:13.035Z,1017.38
2023-02-16T05:34:13.039Z,1017.37
2023-02-16T05:35:13.049Z,1017.43
2023-02-16T05:36:13.057Z,1017.37
2023-02-16T05:37:13.063Z,1017.40
2023-02-16T05:38:13.072Z,1017.34
2023-02-16T05:39:13.086Z,1017.31
2023-02-16T05:40:13.086Z,1017.31
2023-02-16T05:41:13.094Z,1017.30
2023-02-16T05:42:13.111Z,1017.26
2023-02-16T05:43:13.109Z,1017.22
2023-02-16T05:44:13.120Z,1017.18
2023-02-16T05:45:13.137Z,1017.21
2023-02-16T05:46:13.212Z,1017.28
2023-02-16T05:47:13.149Z,1017.32
2023-02-16T05:48:13.148Z,1017.30
2023-02-16T05:49:13.154Z,1017.39
2023-02-16T05:50:13.157Z,1017.35
2023-02-16T05:51:13.167Z,1017.40
2023-02-16T05:52:13.177Z,1017.35
2023-02-16T05:53:13.179Z,1017.37
2023-02-16T05:54:13.188Z,1017.37
2023-02-16T05:55:13.232Z,1017.39
2023-02-16T05:56:13.203Z,1017.38
2023-02-16T05:57:13.207Z,1017.44
2023-02-16T05:58:13.215Z,1017.42
2023-02-16T05:59:13.223Z,1017.45
2023-02-16T06:00:13.232Z,1017.47
2023-02-16T06:01:13.235Z,1017.47
2023-02-16T06:02:13.280Z,1017.53
2023-02-16T06:03:13.251Z,1017.55
2023-02-16T06:04:13.259Z,1017.53
2023-02-16T06:05:13.264Z,1017.55
2023-02-16T06:06:13.272Z,1017.55
2023-02-16T06:07:14.843Z,1017.57
2023-02-16T06:08:13.302Z,1017.57
2023-02-16T06:09:13.292Z,1017.58
2023-02-16T06:10:13.298Z,1017.54
2023-02-16T06:11:13.307Z,1017.54
2023-02-16T06:12:13.315Z,1017.49
2023-02-16T06:13:13.318Z,1017.45
2023-02-16T06:14:13.356Z,1017.49
2023-02-16T06:15:13.337Z,1017.52
2023-02-16T06:16:13.354Z,1017.45
2023-02-16T06:17:13.347Z,1017.45
2023-02-16T06:18:13.358Z,1017.44
2023-02-16T06:19:13.365Z,1017.49
2023-02-16T06:20:13.370Z,1017.49
2023-02-16T06:21:13.374Z,1017.49
2023-02-16T06:22:13.391Z,1017.51
2023-02-16T06:23:13.390Z,1017.51
2023-02-16T06:24:13.397Z,1017.46
2023-02-16T06:25:13.409Z,1017.50
2023-02-16T06:26:13.408Z,1017.50
2023-02-16T06:27:13.419Z,1017.49
2023-02-16T06:28:13.423Z,1017.52
2023-02-16T06:29:13.430Z,1017.52
2023-02-16T06:30:13.504Z,1017.50
2023-02-16T06:31:13.514Z,1017.54
2023-02-16T06:32:13.549Z,1017.51
2023-02-16T06:33:13.456Z,1017.51
2023-02-16T06:34:13.462Z,1017.54
2023-02-16T06:35:13.471Z,1017.59
2023-02-16T06:36:13.479Z,1017.60
2023-02-16T06:37:13.487Z,1017.62
2023-02-16T06:38:13.490Z,1017.56
2023-02-16T06:39:13.497Z,1017.61
2023-02-16T06:40:13.506Z,1017.57
2023-02-16T06:41:13.516Z,1017.54
2023-02-16T06:42:13.519Z,1017.57
2023-02-16T06:43:13.527Z,1017.56
2023-02-16T06:44:13.588Z,1017.59
2023-02-16T06:45:13.538Z,1017.59
2023-02-16T06:46:13.560Z,1017.62
2023-02-16T06:47:13.567Z,1017.65
2023-02-16T06:48:13.560Z,1017.60
2023-02-16T06:49:13.574Z,1017.59
2023-02-16T06:50:13.576Z,1017.61
2023-02-16T06:51:13.584Z,1017.61
2023-02-16T06:52:13.590Z,1017.61
2023-02-16T06:53:13.595Z,1017.65
2023-02-16T06:54:13.605Z,1017.63
2023-02-16T06:55:13.617Z,1017.65
2023-02-16T06:56:13.615Z,1017.60
2023-02-16T06:57:13.637Z,1017.63
2023-02-16T06:58:13.639Z,1017.65
2023-02-16T06:59:13.642Z,1017.64
2023-02-16T07:00:13.647Z,1017.58
2023-02-16T07:01:13.769Z,1017.65
2023-02-16T07:02:13.658Z,1017.67
2023-02-16T07:03:13.724Z,1017.66
2023-02-16T07:04:13.715Z,1017.71
2023-02-16T07:05:13.681Z,1017.72
2023-02-16T07:06:13.692Z,1017.74
2023-02-16T07:07:13.690Z,1017.70
2023-02-16T07:08:13.700Z,1017.71
2023-02-16T07:09:13.708Z,1017.73
2023-02-16T07:10:13.718Z,1017.71
2023-02-16T07:11:13.729Z,1017.71
2023-02-16T07:12:13.729Z,1017.70
2023-02-16T07:13:13.738Z,1017.69
2023-02-16T07:14:13.751Z,1017.66
2023-02-16T07:15:13.756Z,1017.63
2023-02-16T07:16:13.769Z,1017.65
2023-02-16T07:17:13.764Z,1017.62
2023-02-16T07:18:13.773Z,1017.61
2023-02-16T07:19:13.779Z,1017.58
2023-02-16T07:20:13.788Z,1017.57
2023-02-16T07:21:13.797Z,1017.59
2023-02-16T07:22:13.806Z,1017.59
2023-02-16T07:23:13.812Z,1017.59
2023-02-16T07:24:13.817Z,1017.58
2023-02-16T07:25:13.838Z,1017.59
2023-02-16T07:26:13.862Z,1017.63
2023-02-16T07:27:13.842Z,1017.64
2023-02-16T07:28:13.847Z,1017.59
2023-02-16T07:29:13.858Z,1017.59
2023-02-16T07:30:13.881Z,1017.63
2023-02-16T07:31:14.001Z,1017.62
2023-02-16T07:32:13.943Z,1017.62
2023-02-16T07:33:13.884Z,1017.56
2023-02-16T07:34:13.893Z,1017.57
2023-02-16T07:35:13.900Z,1017.55
2023-02-16T07:36:13.920Z,1017.55
2023-02-16T07:37:13.919Z,1017.56
2023-02-16T07:38:13.962Z,1017.54
2023-02-16T07:39:13.929Z,1017.56
2023-02-16T07:40:13.951Z,1017.59
2023-02-16T07:41:14.102Z,1017.54
2023-02-16T07:42:13.955Z,1017.55
2023-02-16T07:43:13.957Z,1017.54
2023-02-16T07:44:13.966Z,1017.54
2023-02-16T07:45:13.971Z,1017.54
2023-02-16T07:46:14.025Z,1017.53
2023-02-16T07:47:13.986Z,1017.52
2023-02-16T07:48:14.004Z,1017.53
2023-02-16T07:49:14.001Z,1017.55
2023-02-16T07:50:14.014Z,1017.55
2023-02-16T07:51:14.024Z,1017.55
2023-02-16T07:52:14.026Z,1017.57
2023-02-16T07:53:14.037Z,1017.56
2023-02-16T07:54:14.042Z,1017.60
2023-02-16T07:55:14.049Z,1017.60
2023-02-16T07:56:14.059Z,1017.61
2023-02-16T07:57:14.071Z,1017.62
2023-02-16T07:58:14.076Z,1017.67
2023-02-16T07:59:14.081Z,1017.63
2023-02-16T08:00:14.089Z,1017.61
2023-02-16T08:01:15.864Z,1017.61
2023-02-16T08:02:14.206Z,1017.62
2023-02-16T08:03:14.238Z,1017.62
2023-02-16T08:04:14.122Z,1017.61
2023-02-16T08:05:14.129Z,1017.63
2023-02-16T08:06:14.152Z,1017.57
2023-02-16T08:07:14.147Z,1017.57
2023-02-16T08:08:14.155Z,1017.58
2023-02-16T08:09:14.162Z,1017.57
2023-02-16T08:10:14.181Z,1017.60
2023-02-16T08:11:14.180Z,1017.59
2023-02-16T08:12:14.193Z,1017.62
2023-02-16T08:13:14.196Z,1017.62
2023-02-16T08:14:14.209Z,1017.59
2023-02-16T08:15:14.219Z,1017.61
2023-02-16T08:16:14.274Z,1017.67
2023-02-16T08:17:14.230Z,1017.70
2023-02-16T08:18:14.244Z,1017.73
2023-02-16T08:19:14.260Z,1017.70
2023-02-16T08:20:14.277Z,1017.69
2023-02-16T08:21:14.349Z,1017.72
2023-02-16T08:22:14.274Z,1017.77
2023-02-16T08:23:14.287Z,1017.76
2023-02-16T08:24:14.296Z,1017.75
2023-02-16T08:25:14.299Z,1017.82
2023-02-16T08:26:14.310Z,1017.78
2023-02-16T08:27:14.323Z,1017.78
2023-02-16T08:28:14.341Z,1017.77
2023-02-16T08:29:14.338Z,1017.75
2023-02-16T08:30:14.369Z,1017.75
2023-02-16T08:31:14.420Z,1017.73
2023-02-16T08:32:14.409Z,1017.76
2023-02-16T08:33:14.370Z,1017.72
2023-02-16T08:34:14.382Z,1017.68
2023-02-16T08:35:14.387Z,1017.70
2023-02-16T08:36:14.397Z,1017.73
2023-02-16T08:37:14.401Z,1017.70
2023-02-16T08:38:14.420Z,1017.69
2023-02-16T08:39:14.421Z,1017.69
2023-02-16T08:40:14.429Z,1017.62
2023-02-16T08:41:14.436Z,1017.63
2023-02-16T08:42:14.450Z,1017.66
2023-02-16T08:43:14.460Z,1017.62
2023-02-16T08:44:14.569Z,1017.61
2023-02-16T08:45:14.471Z,1017.62
2023-02-16T08:46:14.539Z,1017.60
2023-02-16T08:47:14.486Z,1017.56
2023-02-16T08:48:14.494Z,1017.51
2023-02-16T08:49:14.502Z,1017.58
2023-02-16T08:50:14.512Z,1017.56
2023-02-16T08:51:14.519Z,1017.63
2023-02-16T08:52:14.546Z,1017.55
2023-02-16T08:53:14.545Z,1017.59
2023-02-16T08:54:14.546Z,1017.59
2023-02-16T08:55:14.553Z,1017.53
2023-02-16T08:56:14.568Z,1017.52
2023-02-16T08:57:14.571Z,1017.56
2023-02-16T08:58:14.586Z,1017.57
2023-02-16T08:59:14.587Z,1017.51
2023-02-16T09:00:14.596Z,1017.55
2023-02-16T09:01:14.652Z,1017.51
2023-02-16T09:02:14.640Z,1017.55
2023-02-16T09:03:14.624Z,1017.49
2023-02-16T09:04:14.635Z,1017.49
2023-02-16T09:05:14.640Z,1017.58
2023-02-16T09:06:14.650Z,1017.55
2023-02-16T09:07:14.659Z,1017.61
2023-02-16T09:08:14.672Z,1017.57
2023-02-16T09:09:14.680Z,1017.54
2023-02-16T09:10:14.686Z,1017.52
2023-02-16T09:11:14.717Z,1017.51
2023-02-16T09:12:14.709Z,1017.48
2023-02-16T09:13:14.729Z,1017.50
2023-02-16T09:14:14.726Z,1017.45
2023-02-16T09:15:14.732Z,1017.48
2023-02-16T09:16:14.782Z,1017.49
2023-02-16T09:17:14.751Z,1017.49
2023-02-16T09:18:14.761Z,1017.52
2023-02-16T09:19:14.801Z,1017.51
2023-02-16T09:20:14.782Z,1017.51
2023-02-16T09:21:14.800Z,1017.53
2023-02-16T09:22:14.809Z,1017.57
2023-02-16T09:23:14.812Z,1017.55
2023-02-16T09:24:14.824Z,1017.58
2023-02-16T09:25:14.827Z,1017.54
2023-02-16T09:26:14.849Z,1017.52
2023-02-16T09:27:14.862Z,1017.50
2023-02-16T09:28:14.859Z,1017.53
2023-02-16T09:29:14.863Z,1017.55
2023-02-16T09:30:14.903Z,1017.51
2023-02-16T09:31:14.985Z,1017.51
2023-02-16T09:32:14.928Z,1017.47
2023-02-16T09:33:14.909Z,1017.50
2023-02-16T09:34:14.922Z,1017.53
2023-02-16T09:35:14.926Z,1017.53
2023-02-16T09:36:14.937Z,1017.50
2023-02-16T09:37:14.943Z,1017.47
2023-02-16T09:38:14.956Z,1017.45
2023-02-16T09:39:14.969Z,1017.45
2023-02-16T09:40:14.978Z,1017.45
2023-02-16T09:41:14.991Z,1017.42
2023-02-16T09:42:15.017Z,1017.52
2023-02-16T09:43:15.008Z,1017.49
2023-02-16T09:44:15.017Z,1017.53
2023-02-16T09:45:15.027Z,1017.55
2023-02-16T09:46:15.051Z,1017.52
2023-02-16T09:47:15.047Z,1017.46
2023-02-16T09:48:15.060Z,1017.48
2023-02-16T09:49:15.076Z,1017.48
2023-02-16T09:50:15.081Z,1017.45
2023-02-16T09:51:15.778Z,1017.44
2023-02-16T09:52:15.107Z,1017.43
2023-02-16T09:53:15.115Z,1017.41
2023-02-16T09:54:15.125Z,1017.39
2023-02-16T09:55:15.141Z,1017.42
2023-02-16T09:56:15.149Z,1017.42
2023-02-16T09:57:15.161Z,1017.40
2023-02-16T09:58:15.181Z,1017.42
2023-02-16T09:59:15.182Z,1017.40
2023-02-16T10:00:15.218Z,1017.43
2023-02-16T10:01:15.270Z,1017.40
2023-02-16T10:02:15.243Z,1017.37
2023-02-16T10:03:15.230Z,1017.39
2023-02-16T10:04:15.242Z,1017.44
2023-02-16T10:05:15.248Z,1017.41
2023-02-16T10:06:15.262Z,1017.39
2023-02-16T10:07:15.279Z,1017.43
2023-02-16T10:08:15.289Z,1017.44
2023-02-16T10:09:15.295Z,1017.41
2023-02-16T10:10:15.310Z,1017.40
2023-02-16T10:11:15.316Z,1017.41
2023-02-16T10:12:15.330Z,1017.40
2023-02-16T10:13:15.349Z,1017.41
2023-02-16T10:14:15.356Z,1017.50
2023-02-16T10:15:15.374Z,1017.40
2023-02-16T10:16:15.444Z,1017.40
2023-02-16T10:17:15.422Z,1017.41
2023-02-16T10:18:15.402Z,1017.43
2023-02-16T10:19:15.417Z,1017.43
2023-02-16T10:20:15.427Z,1017.46
2023-02-16T10:21:15.444Z,1017.41
2023-02-16T10:22:17.329Z,1017.49
2023-02-16T10:23:15.462Z,1017.46
2023-02-16T10:24:15.479Z,1017.47
2023-02-16T10:25:15.494Z,1017.49
2023-02-16T10:26:15.505Z,1017.50
2023-02-16T10:27:15.512Z,1017.53
2023-02-16T10:28:15.526Z,1017.51
2023-02-16T10:29:15.541Z,1017.51
2023-02-16T10:30:15.686Z,1017.51
2023-02-16T10:31:15.723Z,1017.48
2023-02-16T10:32:15.579Z,1017.49
2023-02-16T10:33:15.611Z,1017.48
2023-02-16T10:34:15.615Z,1017.41
2023-02-16T10:35:15.618Z,1017.49
2023-02-16T10:36:15.632Z,1017.43
2023-02-16T10:37:15.643Z,1017.44
2023-02-16T10:38:15.661Z,1017.42
2023-02-16T10:39:15.671Z,1017.42
2023-02-16T10:40:15.681Z,1017.39
2023-02-16T10:41:15.697Z,1017.39
2023-02-16T10:42:15.708Z,1017.35
2023-02-16T10:43:15.724Z,1017.33
2023-02-16T10:44:15.741Z,1017.31
2023-02-16T10:45:15.747Z,1017.30
2023-02-16T10:46:15.770Z,1017.27
2023-02-16T10:47:15.782Z,1017.22
2023-02-16T10:48:15.785Z,1017.27
2023-02-16T10:49:15.814Z,1017.23
2023-02-16T10:50:15.813Z,1017.21
2023-02-16T10:51:15.828Z,1017.21
2023-02-16T10:52:15.843Z,1017.18
2023-02-16T10:53:15.870Z,1017.21
2023-02-16T10:54:15.863Z,1017.18
2023-02-16T10:55:15.879Z,1017.19
2023-02-16T10:56:15.895Z,1017.19
2023-02-16T10:57:15.916Z,1017.17
2023-02-16T10:58:15.921Z,1017.19
2023-02-16T10:59:15.933Z,1017.18
2023-02-16T11:00:15.964Z,1017.15
2023-02-16T11:01:15.984Z,1017.16
2023-02-16T11:02:15.975Z,1017.15
2023-02-16T11:03:16.026Z,1017.14
2023-02-16T11:04:16.029Z,1017.08
2023-02-16T11:05:16.017Z,1017.13
2023-02-16T11:06:16.033Z,1017.10
2023-02-16T11:07:16.116Z,1017.09
2023-02-16T11:08:16.058Z,1017.13
2023-02-16T11:09:16.073Z,1017.10
2023-02-16T11:10:16.126Z,1017.08
2023-02-16T11:11:16.101Z,1017.06
2023-02-16T11:12:16.117Z,1017.07
2023-02-16T11:13:16.132Z,1017.06
2023-02-16T11:14:16.144Z,1017.08
2023-02-16T11:15:16.156Z,1017.02
2023-02-16T11:16:16.197Z,1017.07
2023-02-16T11:17:16.184Z,1017.07
2023-02-16T11:18:16.199Z,1017.05
2023-02-16T11:19:16.219Z,1017.08
2023-02-16T11:20:16.226Z,1017.08
2023-02-16T11:21:16.240Z,1017.08
2023-02-16T11:22:16.262Z,1017.07
2023-02-16T11:23:16.269Z,1017.06
2023-02-16T11:24:16.283Z,1017.12
2023-02-16T11:25:16.307Z,1017.07
2023-02-16T11:26:16.325Z,1017.08
2023-02-16T11:27:16.329Z,1017.05
2023-02-16T11:28:16.343Z,1017.03
2023-02-16T11:29:16.354Z,1017.01
2023-02-16T11:30:16.430Z,1017.00
2023-02-16T11:31:16.469Z,1016.96
2023-02-16T11:32:16.432Z,1016.94
2023-02-16T11:33:16.444Z,1016.90
2023-02-16T11:34:16.438Z,1016.86
2023-02-16T11:35:16.440Z,1016.87
2023-02-16T11:36:16.458Z,1016.89
2023-02-16T11:37:16.478Z,1016.92
2023-02-16T11:38:16.484Z,1016.88
2023-02-16T11:39:16.500Z,1016.87
2023-02-16T11:40:16.516Z,1016.90
2023-02-16T11:41:16.524Z,1016.89
2023-02-16T11:42:16.539Z,1016.86
2023-02-16T11:43:16.563Z,1016.84
2023-02-16T11:44:16.566Z,1016.85
2023-02-16T11:45:16.579Z,1016.81
2023-02-16T11:46:16.626Z,1016.81
2023-02-16T11:47:16.608Z,1016.82
2023-02-16T11:48:16.620Z,1016.84
2023-02-16T11:49:16.635Z,1016.81
2023-02-16T11:50:16.649Z,1016.77
2023-02-16T11:51:16.670Z,1016.79
2023-02-16T11:52:16.678Z,1016.75
2023-02-16T11:53:16.739Z,1016.70
2023-02-16T11:54:16.708Z,1016.77
2023-02-16T11:55:16.724Z,1016.72
2023-02-16T11:56:16.737Z,1016.68
2023-02-16T11:57:16.762Z,1016.67
2023-02-16T11:58:16.770Z,1016.68
2023-02-16T11:59:16.786Z,1016.66
2023-02-16T12:00:16.832Z,1016.67
2023-02-16T12:01:16.812Z,1016.63
2023-02-16T12:02:16.834Z,1016.69
2023-02-16T12:03:16.846Z,1016.67
2023-02-16T12:04:16.898Z,1016.67
2023-02-16T12:05:16.913Z,1016.65